Time;durP1;ratioP1;P1;durP2;ratioP2;P2;SDS_P1;SDS_P2;PMS_P1;PMS_P2;Temp;Humidity;BMP_temperature;BMP_pressure;BME280_temperature;BME280_humidity;BME280_pressure;Samples;Min_cycle;Max_cycle;Signal;HPM_P1;HPM_P2
2023/05/26 00:00:12;;;;;;;;;;;;;;;17.49;62.25;93224.97;2051003;70;20082;-76
2023/05/26 00:02:39;;;;;;;;;;;;;;;17.50;61.84;93220.75;2051109;70;20050;-76
2023/05/26 00:05:07;;;;;;;;;;;;;;;17.56;62.05;93220.28;2051859;69;20058;-76
2023/05/26 00:07:38;;;;;;;;;;;;;;;17.58;61.86;93223.19;2051303;70;20177;-78
2023/05/26 00:10:07;;;;;;;;;;;;;;;17.41;61.96;93224.63;2049458;70;20124;-76
2023/05/26 00:12:45;;;;;;;;;;;;;;;17.42;62.74;93220.41;2047885;70;20055;-77
2023/05/26 00:15:10;;;;;;;;;;;;;;;17.22;65.03;93233.72;2048222;70;20067;-76
2023/05/26 00:17:36;;;;;;;;;;;;;;;17.49;61.99;93222.13;2048153;70;20225;-77
2023/05/26 00:20:01;;;;;;;;;;;;;;;17.46;63.08;93229.09;2048344;70;20083;-76
2023/05/26 00:22:28;;;;;;;;;;;;;;;17.46;63.33;93225.53;2048316;70;20058;-77
2023/05/26 00:24:53;;;;;;;;;;;;;;;17.48;65.01;93222.75;2047714;70;20054;-76
2023/05/26 00:27:20;;;;;;;;;;;;;;;17.46;64.88;93226.25;2048362;70;20055;-77
2023/05/26 00:29:48;;;;;;;;;;;;;;;17.45;64.89;93221.94;2048201;70;20071;-76
2023/05/26 00:32:13;;;;;;;;;;;;;;;17.45;64.12;93221.94;2048399;70;20197;-77
2023/05/26 00:34:39;;;;;;;;;;;;;;;17.44;63.24;93220.47;2048308;70;20059;-77
2023/05/26 00:37:04;;;;;;;;;;;;;;;17.56;62.00;93216.69;2048098;70;20074;-77
2023/05/26 00:39:30;;;;;;;;;;;;;;;17.48;62.55;93219.91;2048296;70;20067;-77
2023/05/26 00:41:56;;;;;;;;;;;;;;;17.56;61.94;93217.44;2049106;70;20055;-78
2023/05/26 00:44:22;;;;;;;;;;;;;;;17.46;63.08;93214.16;2048437;70;20529;-76
2023/05/26 00:46:48;;;;;;;;;;;;;;;17.44;63.26;93223.31;2047334;70;20476;-77
2023/05/26 00:49:14;;;;;;;;;;;;;;;17.44;63.03;93220.47;2048208;70;20062;-77
2023/05/26 00:51:43;;;;;;;;;;;;;;;17.43;63.48;93230.41;2048269;70;20051;-77
2023/05/26 00:54:09;;;;;;;;;;;;;;;17.34;63.28;93220.03;2047605;70;20055;-75
2023/05/26 00:56:36;;;;;;;;;;;;;;;17.23;63.34;93223.81;2047796;70;20100;-75
2023/05/26 00:59:04;;;;;;;;;;;;;;;17.24;63.83;93216.75;2047685;70;20067;-77
2023/05/26 01:01:30;;;;;;;;;;;;;;;17.30;63.75;93210.59;2047720;70;20069;-77
2023/05/26 01:03:57;;;;;;;;;;;;;;;17.21;64.96;93210.22;2048442;70;20090;-78
2023/05/26 01:06:22;;;;;;;;;;;;;;;17.21;63.97;93213.06;2048046;70;20074;-75
2023/05/26 01:08:48;;;;;;;;;;;;;;;17.08;64.81;93210.31;2047882;70;20162;-76
2023/05/26 01:11:21;;;;;;;;;;;;;;;17.02;64.60;93205.81;2047663;70;20154;-76
2023/05/26 01:13:52;;;;;;;;;;;;;;;17.00;64.50;93208.59;2048281;70;20483;-76
2023/05/26 01:16:21;;;;;;;;;;;;;;;16.96;64.81;93197.03;2044942;70;20067;-74
2023/05/26 01:19:21;;;;;;;;;;;;;;;16.80;64.67;93201.97;2047826;70;20051;-75
2023/05/26 01:21:49;;;;;;;;;;;;;;;16.90;63.69;93198.84;2040873;70;20054;-77
2023/05/26 01:24:33;;;;;;;;;;;;;;;16.66;63.16;93207.72;2046424;70;20074;-75
2023/05/26 01:27:06;;;;;;;;;;;;;;;16.77;61.01;93206.13;2047687;70;20116;-75
2023/05/26 01:29:33;;;;;;;;;;;;;;;16.90;61.74;93205.28;2047977;70;20459;-76
2023/05/26 01:32:06;;;;;;;;;;;;;;;16.68;62.56;93207.09;2048123;70;20081;-75
2023/05/26 01:34:31;;;;;;;;;;;;;;;16.68;62.40;93210.66;2048101;70;20142;-78
2023/05/26 01:36:57;;;;;;;;;;;;;;;16.63;63.65;93206.16;2048124;70;20492;-77
2023/05/26 01:39:22;;;;;;;;;;;;;;;16.63;63.05;93205.41;2047320;70;20170;-76
2023/05/26 01:42:04;;;;;;;;;;;;;;;16.55;63.44;93225.69;2047521;70;20527;-75
2023/05/26 01:44:34;;;;;;;;;;;;;;;16.51;63.26;93217.69;2047467;70;20059;-74
2023/05/26 01:47:00;;;;;;;;;;;;;;;16.49;62.79;93216.84;2047557;70;20047;-75
2023/05/26 01:49:31;;;;;;;;;;;;;;;16.38;61.87;93217.75;2044415;70;20055;-77
2023/05/26 01:52:01;;;;;;;;;;;;;;;16.47;62.18;93214.66;2047613;70;20051;-75
2023/05/26 01:54:34;;;;;;;;;;;;;;;16.42;62.19;93215.09;2047959;70;20139;-77
2023/05/26 01:57:01;;;;;;;;;;;;;;;16.22;63.23;93212.78;2048093;70;20055;-77
2023/05/26 01:59:29;;;;;;;;;;;;;;;16.39;62.57;93219.94;2047880;70;20144;-77
2023/05/26 02:01:58;;;;;;;;;;;;;;;16.33;62.55;93218.94;2047896;70;20490;-76
2023/05/26 02:04:24;;;;;;;;;;;;;;;16.31;62.76;93225.25;2047420;70;20051;-77
2023/05/26 02:06:52;;;;;;;;;;;;;;;16.09;63.67;93218.50;2047897;70;20119;-76
2023/05/26 02:09:18;;;;;;;;;;;;;;;16.24;62.47;93218.53;2047013;70;20071;-77
2023/05/26 02:11:45;;;;;;;;;;;;;;;16.23;62.44;93214.25;2047263;70;20051;-77
2023/05/26 02:14:11;;;;;;;;;;;;;;;16.13;62.86;93218.72;2047434;70;20116;-75
2023/05/26 02:16:37;;;;;;;;;;;;;;;16.21;62.56;93210.56;2047232;70;20088;-77
2023/05/26 02:19:02;;;;;;;;;;;;;;;16.00;62.02;93215.25;2047495;70;20078;-76
2023/05/26 02:21:30;;;;;;;;;;;;;;;15.98;62.51;93218.00;2047501;70;20047;-74
2023/05/26 02:23:56;;;;;;;;;;;;;;;15.88;63.13;93214.66;2047941;70;20056;-75
2023/05/26 02:26:21;;;;;;;;;;;;;;;16.00;62.04;93214.53;2047900;70;20414;-76
2023/05/26 02:28:52;;;;;;;;;;;;;;;15.85;62.95;93209.50;2047600;70;20434;-76
2023/05/26 02:31:17;;;;;;;;;;;;;;;15.88;62.49;93208.97;2054550;69;20443;-77
2023/05/26 02:33:46;;;;;;;;;;;;;;;15.90;62.43;93211.19;2056132;69;20080;-77
2023/05/26 02:36:13;;;;;;;;;;;;;;;15.89;62.43;93213.28;2055607;69;20117;-76
2023/05/26 02:38:39;;;;;;;;;;;;;;;15.79;63.66;93212.78;2054662;69;20043;-76
2023/05/26 02:41:06;;;;;;;;;;;;;;;15.90;62.90;93205.53;2054601;69;20056;-74
2023/05/26 02:43:31;;;;;;;;;;;;;;;15.85;63.50;93215.19;2054528;69;20046;-75
2023/05/26 02:45:56;;;;;;;;;;;;;;;15.80;63.70;93210.69;2051175;70;20411;-74
2023/05/26 02:48:22;;;;;;;;;;;;;;;15.79;62.93;93215.63;2054802;69;20148;-74
2023/05/26 02:50:47;;;;;;;;;;;;;;;15.66;64.30;93213.53;2054041;70;20050;-75
2023/05/26 02:53:15;;;;;;;;;;;;;;;15.63;63.59;93220.47;2054565;69;20150;-75
2023/05/26 02:55:41;;;;;;;;;;;;;;;15.53;63.71;93220.66;2053835;70;20042;-74
2023/05/26 02:58:07;;;;;;;;;;;;;;;15.66;63.30;93213.53;2053618;70;20100;-77
2023/05/26 03:00:33;;;;;;;;;;;;;;;15.64;63.13;93224.81;2053060;70;20066;-74
2023/05/26 03:02:58;;;;;;;;;;;;;;;15.50;63.26;93221.97;2048750;70;20053;-75
2023/05/26 03:05:24;;;;;;;;;;;;;;;15.63;62.00;93218.38;2048084;70;20055;-77
2023/05/26 03:07:49;;;;;;;;;;;;;;;15.28;62.66;93218.72;2048123;70;20054;-76
2023/05/26 03:10:15;;;;;;;;;;;;;;;15.56;61.91;93227.94;2048122;70;20094;-75
2023/05/26 03:12:40;;;;;;;;;;;;;;;15.49;62.96;93224.06;2047933;70;20047;-75
2023/05/26 03:15:06;;;;;;;;;;;;;;;15.47;62.06;93221.09;2048640;70;20395;-75
2023/05/26 03:17:32;;;;;;;;;;;;;;;15.37;62.81;93217.75;2048575;70;20150;-76
2023/05/26 03:19:57;;;;;;;;;;;;;;;15.41;61.61;93212.28;2048130;70;20536;-74
2023/05/26 03:22:23;;;;;;;;;;;;;;;15.32;62.58;93215.34;2047936;70;20094;-75
2023/05/26 03:24:49;;;;;;;;;;;;;;;15.44;62.46;93207.44;2047928;70;20089;-74
2023/05/26 03:27:17;;;;;;;;;;;;;;;15.33;63.39;93203.38;2047887;70;20054;-76
2023/05/26 03:29:43;;;;;;;;;;;;;;;15.37;62.82;93211.34;2047678;70;20073;-77
2023/05/26 03:32:08;;;;;;;;;;;;;;;15.27;63.59;93217.25;2047837;70;20047;-77
2023/05/26 03:34:39;;;;;;;;;;;;;;;15.29;62.04;93216.59;2048659;70;20047;-75
2023/05/26 03:37:05;;;;;;;;;;;;;;;15.32;61.46;93221.75;2048564;70;20054;-77
2023/05/26 03:39:31;;;;;;;;;;;;;;;15.27;62.46;93222.91;2045154;70;20059;-76
2023/05/26 03:41:58;;;;;;;;;;;;;;;15.23;62.59;93212.09;2047967;70;20058;-75
2023/05/26 03:44:26;;;;;;;;;;;;;;;15.17;62.39;93223.13;2047779;70;20051;-77
2023/05/26 03:46:51;;;;;;;;;;;;;;;15.09;61.98;93228.38;2047765;70;20043;-77
2023/05/26 03:49:18;;;;;;;;;;;;;;;15.26;61.87;93224.28;2047888;70;20043;-76
2023/05/26 03:51:44;;;;;;;;;;;;;;;15.38;61.49;93222.06;2048379;70;20051;-76
2023/05/26 03:54:09;;;;;;;;;;;;;;;15.42;61.38;93225.09;2045318;70;20388;-76
2023/05/26 03:56:35;;;;;;;;;;;;;;;15.47;62.18;93223.22;2047945;70;20055;-74
2023/05/26 03:59:02;;;;;;;;;;;;;;;15.54;62.16;93221.44;2047762;70;20051;-76
2023/05/26 04:01:28;;;;;;;;;;;;;;;15.42;62.25;93221.53;2048347;70;20050;-76
2023/05/26 04:03:53;;;;;;;;;;;;;;;15.18;61.58;93221.03;2048295;70;20078;-77
2023/05/26 04:06:20;;;;;;;;;;;;;;;15.44;61.83;93224.47;2047833;70;20047;-77
2023/05/26 04:08:48;;;;;;;;;;;;;;;15.42;62.13;93230.78;2047740;70;20457;-76
2023/05/26 04:11:15;;;;;;;;;;;;;;;15.49;61.97;93224.06;2048147;70;20239;-77
2023/05/26 04:13:43;;;;;;;;;;;;;;;15.52;62.92;93230.56;2048276;70;20268;-74
2023/05/26 04:16:08;;;;;;;;;;;;;;;15.65;62.25;93229.84;2048517;70;20543;-75
2023/05/26 04:18:36;;;;;;;;;;;;;;;15.45;62.04;93225.97;2048348;70;20568;-74
2023/05/26 04:21:01;;;;;;;;;;;;;;;15.54;61.40;93229.94;2048740;70;20232;-73
2023/05/26 04:23:27;;;;;;;;;;;;;;;15.65;62.18;93226.28;2048680;70;20203;-75
2023/05/26 04:25:55;;;;;;;;;;;;;;;15.50;61.89;93231.19;2048496;70;20071;-74
2023/05/26 04:28:47;;;;;;;;;;;;;;;15.32;61.71;93223.84;2048109;70;20165;-75
2023/05/26 04:31:40;;;;;;;;;;;;;;;15.52;60.17;93222.03;2047831;70;20136;-75
2023/05/26 04:34:14;;;;;;;;;;;;;;;15.58;59.92;93224.44;2047834;70;20066;-74
2023/05/26 04:37:03;;;;;;;;;;;;;;;15.41;60.32;93229.31;2048462;70;20117;-75
2023/05/26 04:39:29;;;;;;;;;;;;;;;15.47;59.31;93226.03;2048335;70;20058;-75
2023/05/26 04:41:55;;;;;;;;;;;;;;;15.49;58.86;93229.72;2048425;70;20051;-74
2023/05/26 04:44:22;;;;;;;;;;;;;;;15.67;58.53;93226.38;2047591;70;20082;-74
2023/05/26 04:46:48;;;;;;;;;;;;;;;15.65;59.78;93229.09;2047797;70;20502;-75
2023/05/26 04:49:16;;;;;;;;;;;;;;;15.48;59.80;93236.03;2047825;70;20169;-76
2023/05/26 04:51:42;;;;;;;;;;;;;;;15.51;59.24;93237.59;2048399;70;20051;-76
2023/05/26 04:54:08;;;;;;;;;;;;;;;15.40;58.99;93230.69;2047744;70;20443;-77
2023/05/26 04:56:33;;;;;;;;;;;;;;;15.66;58.70;93239.81;2048199;70;20051;-76
2023/05/26 04:58:59;;;;;;;;;;;;;;;15.77;59.85;93237.50;2047619;70;20054;-77
2023/05/26 05:01:26;;;;;;;;;;;;;;;15.71;58.79;93243.59;2047840;70;20059;-76
2023/05/26 05:04:15;;;;;;;;;;;;;;;15.72;60.25;93240.16;2047731;70;20047;-77
2023/05/26 05:06:58;;;;;;;;;;;;;;;15.79;61.31;93244.00;2047782;70;20143;-75
2023/05/26 05:09:24;;;;;;;;;;;;;;;15.73;62.30;93238.78;2047885;70;20487;-77
2023/05/26 05:11:49;;;;;;;;;;;;;;;15.80;62.29;93248.31;2045004;70;20150;-77
2023/05/26 05:14:16;;;;;;;;;;;;;;;15.62;60.13;93248.09;2047653;70;20051;-75
2023/05/26 05:16:41;;;;;;;;;;;;;;;15.49;59.45;93248.88;2047853;70;20110;-76
2023/05/26 05:19:07;;;;;;;;;;;;;;;15.55;58.65;93245.59;2047661;70;20055;-75
2023/05/26 05:21:39;;;;;;;;;;;;;;;15.38;58.56;93255.38;2047814;70;20154;-75
2023/05/26 05:24:04;;;;;;;;;;;;;;;15.43;59.15;93251.38;2047757;70;20488;-75
2023/05/26 05:26:30;;;;;;;;;;;;;;;15.26;58.95;93261.16;2047718;70;20054;-76
2023/05/26 05:28:56;;;;;;;;;;;;;;;15.35;57.97;93260.22;2047709;70;20055;-76
2023/05/26 05:31:31;;;;;;;;;;;;;;;15.42;58.71;93253.47;2047769;70;20417;-76
2023/05/26 05:33:57;;;;;;;;;;;;;;;15.64;59.65;93245.41;2047729;70;20058;-76
2023/05/26 05:36:23;;;;;;;;;;;;;;;15.49;60.73;93248.88;2047772;70;20075;-75
2023/05/26 05:38:48;;;;;;;;;;;;;;;15.39;59.72;93263.25;2047654;70;20123;-76
2023/05/26 05:41:15;;;;;;;;;;;;;;;15.57;59.42;93249.25;2047752;70;20063;-76
2023/05/26 05:43:40;;;;;;;;;;;;;;;15.64;60.82;93248.25;2048164;70;20051;-76
2023/05/26 05:46:06;;;;;;;;;;;;;;;15.75;61.07;93249.47;2047635;70;20047;-74
2023/05/26 05:48:41;;;;;;;;;;;;;;;15.80;60.18;93248.31;2048296;70;20051;-75
2023/05/26 05:51:12;;;;;;;;;;;;;;;15.81;59.46;93246.22;2047643;70;20059;-74
2023/05/26 05:53:37;;;;;;;;;;;;;;;15.88;59.50;93250.84;2044938;70;20112;-74
2023/05/26 05:56:03;;;;;;;;;;;;;;;15.74;59.23;93248.75;2047672;70;20070;-76
2023/05/26 05:58:28;;;;;;;;;;;;;;;15.44;57.93;93247.91;2047608;70;20142;-75
2023/05/26 06:00:57;;;;;;;;;;;;;;;15.55;58.60;93254.84;2048393;70;20062;-76
2023/05/26 06:03:22;;;;;;;;;;;;;;;15.70;59.12;93248.53;2047689;70;20051;-77
2023/05/26 06:05:47;;;;;;;;;;;;;;;15.74;58.24;93242.34;2047736;70;20133;-78
2023/05/26 06:08:13;;;;;;;;;;;;;;;15.37;58.56;93253.91;2048276;70;20125;-77
2023/05/26 06:10:38;;;;;;;;;;;;;;;15.65;58.19;93246.13;2048403;70;20059;-78
2023/05/26 06:13:04;;;;;;;;;;;;;;;15.83;58.34;93246.31;2049178;70;20118;-77
2023/05/26 06:15:29;;;;;;;;;;;;;;;15.79;59.38;93251.78;2048185;70;20058;-77
2023/05/26 06:17:58;;;;;;;;;;;;;;;15.94;59.88;93246.22;2048253;70;20044;-77
2023/05/26 06:20:23;;;;;;;;;;;;;;;15.99;61.25;93244.31;2047746;70;20073;-76
2023/05/26 06:22:48;;;;;;;;;;;;;;;15.96;60.57;93251.97;2047715;70;20150;-77
2023/05/26 06:25:14;;;;;;;;;;;;;;;16.13;59.64;93247.84;2047450;70;20123;-76
2023/05/26 06:27:40;;;;;;;;;;;;;;;16.30;60.36;93257.88;2048118;70;20047;-75
2023/05/26 06:30:08;;;;;;;;;;;;;;;16.06;60.06;93257.41;2047590;70;20054;-77
2023/05/26 06:32:35;;;;;;;;;;;;;;;16.31;59.89;93256.50;2047572;70;20051;-77
2023/05/26 06:35:01;;;;;;;;;;;;;;;16.47;61.65;93262.22;2047815;70;20054;-77
2023/05/26 06:37:27;;;;;;;;;;;;;;;16.61;60.26;93254.38;2048404;70;20157;-78
2023/05/26 06:39:52;;;;;;;;;;;;;;;16.72;60.13;93261.28;2047658;70;20476;-78
2023/05/26 06:42:23;;;;;;;;;;;;;;;16.84;60.57;93261.13;2047807;70;20465;-79
2023/05/26 06:44:48;;;;;;;;;;;;;;;16.90;59.46;93267.84;2047494;70;20047;-77
2023/05/26 06:47:14;;;;;;;;;;;;;;;16.98;59.83;93265.38;2047608;70;20078;-78
2023/05/26 06:49:43;;;;;;;;;;;;;;;17.07;58.96;93263.63;2047607;70;20051;-78
2023/05/26 06:52:11;;;;;;;;;;;;;;;17.14;59.57;93267.50;2047553;70;20062;-75
2023/05/26 06:54:37;;;;;;;;;;;;;;;17.27;59.21;93261.72;2047583;70;20055;-77
2023/05/26 06:57:03;;;;;;;;;;;;;;;17.41;57.81;93255.94;2047592;70;20312;-74
2023/05/26 06:59:29;;;;;;;;;;;;;;;17.51;58.41;93258.47;2047563;70;20484;-76
2023/05/26 07:01:56;;;;;;;;;;;;;;;17.59;58.67;93261.66;2047561;70;20048;-78
2023/05/26 07:04:21;;;;;;;;;;;;;;;17.66;59.61;93259.84;2047587;70;20401;-77
2023/05/26 07:06:47;;;;;;;;;;;;;;;17.60;58.89;93257.47;2048202;70;20058;-78
2023/05/26 07:09:13;;;;;;;;;;;;;;;17.77;58.24;93250.38;2047507;70;20677;-79
2023/05/26 07:11:48;;;;;;;;;;;;;;;17.76;60.97;93254.59;2047518;70;20047;-78
2023/05/26 07:14:34;;;;;;;;;;;;;;;17.89;60.51;93253.00;2047913;70;20082;-78
2023/05/26 07:16:59;;;;;;;;;;;;;;;17.94;61.16;93251.81;2048079;70;20051;-78
2023/05/26 07:19:26;;;;;;;;;;;;;;;18.08;59.57;93252.41;2047479;70;20055;-78
2023/05/26 07:21:51;;;;;;;;;;;;;;;18.13;60.71;93248.31;2048185;70;20058;-78
2023/05/26 07:24:18;;;;;;;;;;;;;;;18.19;60.16;93245.75;2047973;70;20055;-78
2023/05/26 07:26:44;;;;;;;;;;;;;;;18.22;57.56;93244.44;2047972;70;20054;-75
2023/05/26 07:29:10;;;;;;;;;;;;;;;18.22;56.99;93243.69;2047342;70;20051;-77
2023/05/26 07:31:35;;;;;;;;;;;;;;;17.94;57.75;93246.84;2047920;70;20446;-77
2023/05/26 07:34:01;;;;;;;;;;;;;;;18.21;57.40;93248.66;2047331;70;20051;-78
2023/05/26 07:36:28;;;;;;;;;;;;;;;18.44;57.22;93243.88;2047338;70;20044;-78
2023/05/26 07:38:54;;;;;;;;;;;;;;;18.66;55.79;93246.91;2047201;70;20158;-78
2023/05/26 07:41:21;;;;;;;;;;;;;;;18.60;56.29;93247.38;2048068;70;20054;-78
2023/05/26 07:43:47;;;;;;;;;;;;;;;18.64;58.28;93246.78;2047780;70;20426;-76
2023/05/26 07:46:12;;;;;;;;;;;;;;;18.98;58.22;93247.44;2047467;70;20051;-76
2023/05/26 07:48:39;;;;;;;;;;;;;;;19.19;58.06;93251.78;2048494;70;20047;-77
2023/05/26 07:51:04;;;;;;;;;;;;;;;19.54;59.27;93245.97;2048580;70;20162;-77
2023/05/26 07:53:29;;;;;;;;;;;;;;;19.37;56.95;93243.91;2048494;70;20158;-78
2023/05/26 07:55:55;;;;;;;;;;;;;;;19.44;55.70;93244.88;2048562;70;20495;-78
2023/05/26 07:58:20;;;;;;;;;;;;;;;19.54;56.24;93239.53;2048344;70;20143;-77
2023/05/26 08:00:46;;;;;;;;;;;;;;;20.18;55.59;93233.91;2050341;70;20049;-76
2023/05/26 08:03:12;;;;;;;;;;;;;;;20.66;54.68;93237.63;2048627;70;20062;-76
2023/05/26 08:05:37;;;;;;;;;;;;;;;21.17;54.03;93239.22;2048383;70;20058;-76
2023/05/26 08:08:02;;;;;;;;;;;;;;;21.38;53.50;93236.97;2048414;70;20062;-76
2023/05/26 08:10:28;;;;;;;;;;;;;;;21.83;51.92;93242.56;2048418;70;20047;-77
2023/05/26 08:12:53;;;;;;;;;;;;;;;22.04;50.55;93238.13;2048417;70;20079;-77
2023/05/26 08:15:20;;;;;;;;;;;;;;;22.31;49.93;93230.97;2048464;70;20066;-77
2023/05/26 08:17:47;;;;;;;;;;;;;;;22.40;48.16;93231.16;2048464;70;20130;-75
2023/05/26 08:20:12;;;;;;;;;;;;;;;22.84;51.03;93229.38;2048468;70;20058;-76
2023/05/26 08:22:38;;;;;;;;;;;;;;;22.38;47.04;93225.38;2048702;70;20043;-75
2023/05/26 08:25:05;;;;;;;;;;;;;;;23.15;47.38;93230.13;2048692;70;20078;-76
2023/05/26 08:27:30;;;;;;;;;;;;;;;23.26;47.32;93228.91;2048335;70;20567;-76
2023/05/26 08:29:56;;;;;;;;;;;;;;;24.03;46.33;93224.03;2047978;70;20047;-76
2023/05/26 08:32:21;;;;;;;;;;;;;;;24.19;46.79;93220.75;2048414;70;20070;-76
2023/05/26 08:34:47;;;;;;;;;;;;;;;24.57;47.29;93214.97;2048473;70;20051;-76
2023/05/26 08:37:14;;;;;;;;;;;;;;;24.89;44.79;93213.28;2048442;70;20070;-76
2023/05/26 08:39:40;;;;;;;;;;;;;;;25.10;46.05;93212.91;2048471;70;20119;-76
2023/05/26 08:42:06;;;;;;;;;;;;;;;25.35;44.39;93211.13;2048527;70;20461;-76
2023/05/26 08:44:35;;;;;;;;;;;;;;;25.68;43.22;93205.03;2048282;70;20119;-76
2023/05/26 08:47:02;;;;;;;;;;;;;;;25.71;42.33;93195.72;2048397;70;20492;-76
2023/05/26 08:49:31;;;;;;;;;;;;;;;25.62;42.95;93196.31;2048419;70;20149;-77
2023/05/26 08:52:02;;;;;;;;;;;;;;;26.12;43.33;93195.50;2048409;70;20055;-77
2023/05/26 08:54:27;;;;;;;;;;;;;;;26.25;42.38;93186.25;2048307;70;20203;-77
2023/05/26 08:56:53;;;;;;;;;;;;;;;26.74;41.01;93189.56;2048380;70;20106;-78
2023/05/26 08:59:19;;;;;;;;;;;;;;;27.00;39.45;93194.13;2048245;70;20043;-77
2023/05/26 09:01:44;;;;;;;;;;;;;;;27.49;38.68;93185.75;2048307;70;20465;-77
2023/05/26 09:04:10;;;;;;;;;;;;;;;26.13;39.39;93182.50;2048411;70;20358;-77
2023/05/26 09:06:40;;;;;;;;;;;;;;;26.90;39.02;93188.25;2048391;70;20498;-76
2023/05/26 09:09:06;;;;;;;;;;;;;;;27.15;39.31;93181.22;2048336;70;20084;-76
2023/05/26 09:11:33;;;;;;;;;;;;;;;27.79;39.93;93185.19;2048345;70;20051;-75
2023/05/26 09:13:59;;;;;;;;;;;;;;;26.62;38.81;93189.50;2048207;70;20511;-76
2023/05/26 09:16:25;;;;;;;;;;;;;;;27.71;37.54;93196.69;2048317;70;20059;-76
2023/05/26 09:18:58;;;;;;;;;;;;;;;28.67;37.85;93186.13;2047948;70;20087;-77
2023/05/26 09:21:27;;;;;;;;;;;;;;;27.70;35.50;93187.28;2048421;70;20138;-77
2023/05/26 09:23:57;;;;;;;;;;;;;;;26.58;37.73;93177.91;2048366;70;20446;-76
2023/05/26 09:26:27;;;;;;;;;;;;;;;26.73;38.26;93178.75;2048472;70;20578;-75
2023/05/26 09:28:52;;;;;;;;;;;;;;;27.81;37.16;93180.16;2048285;70;20130;-75
2023/05/26 09:31:18;;;;;;;;;;;;;;;28.60;35.34;93185.41;2047791;70;20051;-75
2023/05/26 09:33:46;;;;;;;;;;;;;;;29.33;33.93;93190.47;2048443;70;20074;-76
2023/05/26 09:36:11;;;;;;;;;;;;;;;28.90;33.93;93189.75;2048309;70;20106;-79
2023/05/26 09:38:37;;;;;;;;;;;;;;;28.97;36.35;93179.66;2048213;70;20059;-77
2023/05/26 09:41:02;;;;;;;;;;;;;;;29.92;33.72;93178.00;2048393;70;20055;-76
2023/05/26 09:43:32;;;;;;;;;;;;;;;29.79;32.51;93177.31;2048423;70;20047;-78
2023/05/26 09:45:57;;;;;;;;;;;;;;;29.46;35.19;93170.88;2048289;70;20055;-78
2023/05/26 09:48:23;;;;;;;;;;;;;;;30.22;33.66;93167.69;2050977;70;20137;-76
2023/05/26 09:50:50;;;;;;;;;;;;;;;30.43;32.83;93166.13;2048915;70;20388;-79
2023/05/26 09:53:16;;;;;;;;;;;;;;;30.95;32.78;93166.47;2048376;70;20055;-77
2023/05/26 09:55:43;;;;;;;;;;;;;;;29.56;31.89;93173.75;2048410;70;20054;-76
2023/05/26 09:58:10;;;;;;;;;;;;;;;30.27;31.18;93177.81;2048175;70;20047;-76
2023/05/26 10:00:36;;;;;;;;;;;;;;;31.07;30.99;93175.09;2047776;70;20051;-76
2023/05/26 10:03:03;;;;;;;;;;;;;;;32.07;31.29;93171.88;2047754;70;20564;-76
2023/05/26 10:05:31;;;;;;;;;;;;;;;32.14;29.92;93172.50;2047728;70;20047;-76
2023/05/26 10:07:59;;;;;;;;;;;;;;;31.95;30.00;93165.50;2048350;70;20051;-78
2023/05/26 10:10:25;;;;;;;;;;;;;;;30.96;29.58;93165.72;2047725;70;20114;-76
2023/05/26 10:12:51;;;;;;;;;;;;;;;30.93;30.21;93160.66;2047681;70;20254;-76
2023/05/26 10:15:16;;;;;;;;;;;;;;;32.00;29.66;93158.84;2048243;70;20075;-78
2023/05/26 10:17:42;;;;;;;;;;;;;;;31.83;28.44;93157.63;2048408;70;20039;-79
2023/05/26 10:20:08;;;;;;;;;;;;;;;33.22;28.93;93158.53;2047840;70;20059;-79
2023/05/26 10:22:40;;;;;;;;;;;;;;;33.07;27.04;93155.13;2047710;70;20074;-77
2023/05/26 10:25:15;;;;;;;;;;;;;;;31.91;27.32;93159.72;2048215;70;20087;-77
2023/05/26 10:27:46;;;;;;;;;;;;;;;33.18;27.26;93152.78;2048032;70;20059;-77
2023/05/26 10:30:15;;;;;;;;;;;;;;;32.96;25.97;93150.97;2048258;70;20051;-77
2023/05/26 10:32:54;;;;;;;;;;;;;;;35.15;26.55;93153.81;2048270;70;20164;-79
2023/05/26 10:35:23;;;;;;;;;;;;;;;35.22;25.26;93163.13;2048209;70;20047;-80
2023/05/26 10:37:55;;;;;;;;;;;;;;;35.99;23.27;93152.34;2047654;70;20535;-80
2023/05/26 10:40:26;;;;;;;;;;;;;;;36.56;22.34;93152.88;2048167;70;20047;-77
2023/05/26 10:42:51;;;;;;;;;;;;;;;36.20;22.19;93149.53;2048108;70;20142;-76
2023/05/26 10:45:18;;;;;;;;;;;;;;;39.29;21.63;93149.06;2048126;70;20153;-77
2023/05/26 10:47:46;;;;;;;;;;;;;;;41.38;18.72;93150.00;2048165;70;20122;-77
2023/05/26 10:50:12;;;;;;;;;;;;;;;39.03;19.87;93150.13;2048173;70;20097;-77
2023/05/26 10:52:50;;;;;;;;;;;;;;;41.61;18.73;93140.00;2049748;70;20508;-78
2023/05/26 10:55:41;;;;;;;;;;;;;;;40.67;18.14;93141.56;2051458;70;20439;-77
2023/05/26 10:58:25;;;;;;;;;;;;;;;39.25;19.84;93133.81;2047234;70;20442;-77
2023/05/26 11:00:54;;;;;;;;;;;;;;;41.41;18.29;93126.97;2051399;70;20054;-77
2023/05/26 11:03:35;;;;;;;;;;;;;;;41.23;18.05;93134.47;2051365;70;20043;-77
2023/05/26 11:06:01;;;;;;;;;;;;;;;41.69;17.90;93141.81;2051366;70;20071;-76
2023/05/26 11:08:32;;;;;;;;;;;;;;;37.51;21.46;93134.41;2051389;70;20478;-77
2023/05/26 11:11:00;;;;;;;;;;;;;;;43.56;17.44;93127.97;2049346;70;20430;-76
2023/05/26 11:13:42;;;;;;;;;;;;;;;45.17;14.77;93138.16;2046901;70;20449;-76
2023/05/26 11:16:12;;;;;;;;;;;;;;;38.28;20.48;93119.16;2047305;70;20476;-76
2023/05/26 11:18:39;;;;;;;;;;;;;;;35.85;22.18;93111.72;2047101;70;20050;-76
2023/05/26 11:21:06;;;;;;;;;;;;;;;36.70;21.88;93117.25;2047919;70;20055;-76
2023/05/26 11:23:32;;;;;;;;;;;;;;;38.56;19.34;93116.66;2048343;70;20055;-77
2023/05/26 11:25:58;;;;;;;;;;;;;;;34.15;23.35;93103.47;2048425;70;20050;-76
2023/05/26 11:28:23;;;;;;;;;;;;;;;38.46;20.83;93108.94;2047834;70;20071;-76
2023/05/26 11:30:49;;;;;;;;;;;;;;;43.38;16.79;93115.63;2048298;70;20063;-77
2023/05/26 11:33:15;;;;;;;;;;;;;;;46.02;15.83;93119.88;2048448;70;20484;-77
2023/05/26 11:35:40;;;;;;;;;;;;;;;47.12;14.31;93124.75;2055434;70;20046;-77
2023/05/26 11:38:06;;;;;;;;;;;;;;;48.53;13.46;93113.44;2058183;69;20113;-77
2023/05/26 11:40:32;;;;;;;;;;;;;;;47.18;13.21;93113.94;2055353;69;20051;-78
2023/05/26 11:42:57;;;;;;;;;;;;;;;46.19;14.50;93114.25;2054979;69;20228;-78
2023/05/26 11:45:25;;;;;;;;;;;;;;;48.97;13.47;93115.13;2055049;69;20168;-78
2023/05/26 11:47:51;;;;;;;;;;;;;;;50.95;11.82;93118.72;2054831;69;20061;-78
2023/05/26 11:50:17;;;;;;;;;;;;;;;51.37;11.86;93108.22;2054058;69;20054;-79
2023/05/26 11:52:44;;;;;;;;;;;;;;;49.20;11.07;93113.31;2054776;69;20082;-79
2023/05/26 11:55:10;;;;;;;;;;;;;;;48.53;12.93;93102.19;2055208;69;20076;-80
2023/05/26 11:57:36;;;;;;;;;;;;;;;49.73;11.50;93100.69;2058033;69;20085;-81
2023/05/26 12:00:09;;;;;;;;;;;;;;;50.40;10.27;93097.25;2055809;69;20094;-80
2023/05/26 12:02:37;;;;;;;;;;;;;;;49.74;10.83;93093.13;2055192;69;20073;-80
2023/05/26 12:05:23;;;;;;;;;;;;;;;49.86;11.26;93088.41;2055104;69;20059;-80
2023/05/26 12:08:04;;;;;;;;;;;;;;;50.35;11.90;93084.91;2055124;69;20051;-79
2023/05/26 12:10:30;;;;;;;;;;;;;;;50.11;11.43;93093.00;2055076;69;20124;-82
2023/05/26 12:12:56;;;;;;;;;;;;;;;51.90;10.93;93078.66;2054968;69;20047;-79
2023/05/26 12:15:22;;;;;;;;;;;;;;;50.95;10.39;93082.75;2055073;69;20055;-80
2023/05/26 12:17:50;;;;;;;;;;;;;;;50.02;10.93;93080.31;2055074;69;20051;-79
2023/05/26 12:20:18;;;;;;;;;;;;;;;49.48;10.37;93074.41;2055083;69;20047;-79
2023/05/26 12:22:45;;;;;;;;;;;;;;;47.75;10.37;93053.06;2055001;69;20124;-79
2023/05/26 12:25:11;;;;;;;;;;;;;;;45.36;12.34;93061.81;2054920;69;20530;-79
2023/05/26 12:27:37;;;;;;;;;;;;;;;43.07;12.96;93056.72;2057404;69;20086;-79
2023/05/26 12:30:15;;;;;;;;;;;;;;;41.31;15.52;93047.72;2055040;69;20093;-79
2023/05/26 12:32:41;;;;;;;;;;;;;;;39.83;15.98;93036.28;2054973;69;20201;-79
2023/05/26 12:35:07;;;;;;;;;;;;;;;38.86;17.30;93033.09;2055049;69;20153;-79
2023/05/26 12:37:32;;;;;;;;;;;;;;;37.04;20.18;93021.53;2055015;69;20109;-79
2023/05/26 12:39:58;;;;;;;;;;;;;;;36.40;19.99;93022.88;2054794;69;20059;-78
2023/05/26 12:42:25;;;;;;;;;;;;;;;36.52;19.66;93009.34;2054800;69;20055;-77
2023/05/26 12:44:52;;;;;;;;;;;;;;;35.40;19.13;93010.47;2054907;69;20121;-78
2023/05/26 12:47:17;;;;;;;;;;;;;;;34.70;21.19;93016.75;2055032;69;20575;-78
2023/05/26 12:49:42;;;;;;;;;;;;;;;35.32;20.78;93011.41;2055133;69;20050;-79